createdAt,value
2022-10-05T00:02:18.328Z,321.25
2022-10-05T00:05:20.499Z,345.80
2022-10-05T00:08:14.905Z,355.35
2022-10-05T00:11:02.970Z,336.73
2022-10-05T00:13:52.733Z,339.70
2022-10-05T00:16:40.662Z,347.67
2022-10-05T00:19:31.894Z,340.20
2022-10-05T00:22:21.689Z,335.27
2022-10-05T00:25:14.297Z,344.02
2022-10-05T00:28:02.317Z,343.35
2022-10-05T00:30:51.588Z,363.27
2022-10-05T00:33:41.461Z,332.95
2022-10-05T00:36:29.358Z,360.98
2022-10-05T00:39:19.020Z,325.50
2022-10-05T00:42:21.676Z,336.85
2022-10-05T00:45:16.149Z,342.13
2022-10-05T00:48:21.612Z,343.40
2022-10-05T00:51:20.293Z,330.33
2022-10-05T00:54:22.061Z,364.60
2022-10-05T00:57:31.048Z,344.03
2022-10-05T01:00:24.373Z,352.67
2022-10-05T01:03:19.699Z,353.60
2022-10-05T01:06:17.529Z,348.40
2022-10-05T01:09:15.821Z,343.10
2022-10-05T01:12:10.284Z,337.87
2022-10-05T01:15:06.071Z,347.07
2022-10-05T01:18:00.915Z,338.83
2022-10-05T01:21:00.719Z,328.75
2022-10-05T01:24:24.447Z,327.53
2022-10-05T01:27:22.501Z,313.63
2022-10-05T01:30:14.484Z,322.00
2022-10-05T01:33:13.064Z,312.63
2022-10-05T01:36:07.410Z,338.60
2022-10-05T01:39:05.510Z,329.73
2022-10-05T01:42:02.626Z,340.13
2022-10-05T01:44:57.347Z,323.20
2022-10-05T01:47:50.409Z,327.30
2022-10-05T01:50:54.608Z,326.67
2022-10-05T01:53:56.733Z,345.87
2022-10-05T01:57:03.124Z,337.40
2022-10-05T02:00:07.543Z,315.40
2022-10-05T02:03:12.507Z,337.50
2022-10-05T02:06:07.050Z,335.27
2022-10-05T02:09:03.519Z,327.63
2022-10-05T02:11:58.485Z,323.67
2022-10-05T02:14:50.786Z,343.07
2022-10-05T02:17:45.239Z,345.00
2022-10-05T02:20:38.929Z,338.20
2022-10-05T02:23:32.087Z,346.88
2022-10-05T02:26:20.563Z,330.40
2022-10-05T02:29:11.383Z,360.52
2022-10-05T02:32:04.382Z,343.88
2022-10-05T02:35:00.474Z,335.77
2022-10-05T02:37:57.768Z,329.80
2022-10-05T02:40:55.617Z,349.75
2022-10-05T02:43:51.493Z,341.73
2022-10-05T02:46:50.841Z,346.87
2022-10-05T02:49:46.297Z,332.57
2022-10-05T02:52:46.461Z,327.50
2022-10-05T02:55:48.978Z,341.07
2022-10-05T02:58:45.286Z,348.83
2022-10-05T03:01:41.639Z,320.02
2022-10-05T03:04:39.115Z,339.77
2022-10-05T03:07:33.304Z,358.10
2022-10-05T03:10:29.735Z,333.70
2022-10-05T03:13:27.041Z,306.75
2022-10-05T03:16:41.243Z,338.48
2022-10-05T03:19:40.682Z,387.52
2022-10-05T03:22:40.831Z,360.80
2022-10-05T03:25:46.498Z,389.10
2022-10-05T03:28:51.559Z,399.67
2022-10-05T03:31:44.713Z,406.88
2022-10-05T03:34:39.743Z,416.88
2022-10-05T03:37:38.341Z,475.60
2022-10-05T03:40:33.237Z,440.92
2022-10-05T03:43:41.715Z,418.05
2022-10-05T03:46:44.263Z,418.40
2022-10-05T03:49:48.878Z,431.98
2022-10-05T03:52:42.159Z,454.33
2022-10-05T03:55:36.625Z,470.65
2022-10-05T03:58:29.502Z,452.00
2022-10-05T04:01:24.461Z,424.67
2022-10-05T04:04:23.893Z,385.25
2022-10-05T04:07:20.240Z,360.75
2022-10-05T04:10:14.713Z,366.73
2022-10-05T04:13:07.866Z,358.88
2022-10-05T04:16:03.448Z,368.95
2022-10-05T04:19:00.096Z,399.60
2022-10-05T04:21:53.194Z,391.40
2022-10-05T04:24:46.255Z,377.90
2022-10-05T04:27:39.776Z,401.38
2022-10-05T04:30:31.579Z,379.17
2022-10-05T04:33:19.701Z,370.55
2022-10-05T04:36:23.049Z,387.35
2022-10-05T04:39:23.079Z,393.10
2022-10-05T04:42:17.592Z,386.42
2022-10-05T04:45:15.487Z,363.67
2022-10-05T04:48:27.943Z,362.13
2022-10-05T04:51:32.518Z,355.27
2022-10-05T04:54:31.546Z,359.50
2022-10-05T04:57:24.499Z,363.50
2022-10-05T05:00:23.657Z,380.00
2022-10-05T05:03:32.930Z,367.45
2022-10-05T05:06:31.096Z,350.88
2022-10-05T05:09:48.313Z,360.40
2022-10-05T05:12:45.030Z,363.35
2022-10-05T05:15:46.954Z,363.27
2022-10-05T05:18:53.806Z,378.90
2022-10-05T05:21:50.626Z,351.88
2022-10-05T05:24:50.188Z,370.80
2022-10-05T05:27:43.781Z,373.05
2022-10-05T05:30:43.680Z,366.83
2022-10-05T05:33:41.904Z,350.77
2022-10-05T05:36:49.230Z,380.45
2022-10-05T05:39:51.252Z,371.92
2022-10-05T05:42:49.480Z,377.52
2022-10-05T05:45:42.892Z,364.70
2022-10-05T05:48:38.831Z,389.05
2022-10-05T05:51:33.815Z,402.08
2022-10-05T05:54:28.564Z,375.45
2022-10-05T05:57:23.226Z,387.83
2022-10-05T06:00:21.517Z,382.83
2022-10-05T06:03:21.765Z,354.13
2022-10-05T06:05:55.529Z,372.33
2022-10-05T06:08:30.804Z,401.73
2022-10-05T06:11:11.016Z,400.23
2022-10-05T06:13:42.784Z,366.05
2022-10-05T06:16:20.540Z,391.92
2022-10-05T06:18:53.020Z,410.50
2022-10-05T06:21:27.246Z,378.48
2022-10-05T06:23:59.883Z,399.73
2022-10-05T06:26:43.068Z,401.83
2022-10-05T06:29:17.777Z,376.35
2022-10-05T06:32:00.726Z,380.75
2022-10-05T06:34:46.691Z,395.27
2022-10-05T06:37:29.306Z,395.50
2022-10-05T06:40:12.441Z,404.55
2022-10-05T06:42:49.919Z,404.98
2022-10-05T06:45:31.717Z,376.95
2022-10-05T06:48:26.748Z,389.83
2022-10-05T06:51:32.193Z,397.33
2022-10-05T06:54:33.225Z,391.20
2022-10-05T06:57:07.988Z,405.27
2022-10-05T06:59:45.404Z,420.85
2022-10-05T07:02:26.711Z,399.20
2022-10-05T07:05:16.626Z,399.35
2022-10-05T07:07:53.464Z,405.40
2022-10-05T07:10:31.544Z,416.60
2022-10-05T07:13:14.684Z,409.52
2022-10-05T07:15:49.137Z,393.65
2022-10-05T07:18:32.584Z,431.00
2022-10-05T07:21:08.390Z,426.48
2022-10-05T07:23:48.957Z,413.13
2022-10-05T07:26:26.697Z,431.25
2022-10-05T07:29:29.844Z,442.92
2022-10-05T07:32:10.805Z,427.05
2022-10-05T07:34:50.581Z,424.42
2022-10-05T07:37:39.319Z,446.23
2022-10-05T07:40:16.021Z,438.23
2022-10-05T07:42:57.079Z,444.90
2022-10-05T07:45:32.572Z,424.83
2022-10-05T07:48:13.285Z,430.92
2022-10-05T07:50:53.632Z,397.88
2022-10-05T07:53:25.875Z,415.95
2022-10-05T07:55:56.799Z,408.38
2022-10-05T07:58:29.589Z,410.85
2022-10-05T08:01:08.003Z,392.48
2022-10-05T08:03:47.454Z,415.30
2022-10-05T08:06:31.264Z,404.35
2022-10-05T08:09:05.938Z,395.70
2022-10-05T08:11:43.662Z,416.92
2022-10-05T08:14:17.859Z,403.77
2022-10-05T08:16:48.330Z,430.05
2022-10-05T08:19:22.695Z,422.67
2022-10-05T08:21:59.800Z,418.77
2022-10-05T08:24:40.941Z,435.02
2022-10-05T08:27:16.412Z,428.23
2022-10-05T08:29:54.661Z,442.50
2022-10-05T08:32:25.800Z,451.10
2022-10-05T08:35:01.860Z,449.52
2022-10-05T08:37:35.469Z,428.25
2022-10-05T08:40:30.874Z,463.17
2022-10-05T08:43:20.458Z,446.85
2022-10-05T08:46:19.601Z,463.20
2022-10-05T08:49:18.216Z,475.30
2022-10-05T08:52:08.492Z,489.27
2022-10-05T08:54:47.900Z,458.63
2022-10-05T08:57:50.038Z,485.85
2022-10-05T09:00:20.254Z,472.52
2022-10-05T09:03:20.117Z,477.13
2022-10-05T09:06:17.318Z,454.35
2022-10-05T09:09:06.183Z,485.13
2022-10-05T09:11:37.269Z,494.60
2022-10-05T09:14:31.928Z,500.02
2022-10-05T09:17:23.995Z,481.38
2022-10-05T09:20:10.661Z,460.13
2022-10-05T09:22:58.851Z,493.80
2022-10-05T09:25:42.830Z,465.13
2022-10-05T09:28:26.227Z,499.60
2022-10-05T09:31:04.201Z,480.67
2022-10-05T09:34:03.853Z,487.95
2022-10-05T09:37:07.084Z,487.40
2022-10-05T09:40:17.392Z,487.60
2022-10-05T09:43:03.488Z,500.33
2022-10-05T09:45:45.257Z,485.73
2022-10-05T09:48:52.494Z,495.00
2022-10-05T09:51:54.607Z,484.77
2022-10-05T09:54:49.090Z,486.38
2022-10-05T09:57:35.983Z,467.80
2022-10-05T10:00:21.571Z,481.42
2022-10-05T10:03:12.888Z,498.63
2022-10-05T10:06:13.567Z,503.15
2022-10-05T10:08:53.675Z,479.67
2022-10-05T10:11:41.423Z,516.53
2022-10-05T10:14:21.059Z,494.58
2022-10-05T10:17:09.028Z,526.05
2022-10-05T10:20:14.910Z,512.97
2022-10-05T10:23:03.665Z,499.00
2022-10-05T10:25:49.523Z,522.05
2022-10-05T10:28:45.393Z,517.35
2022-10-05T10:31:29.451Z,501.17
2022-10-05T10:34:11.260Z,516.50
2022-10-05T10:37:00.789Z,521.85
2022-10-05T10:39:45.089Z,531.90
2022-10-05T10:42:32.655Z,496.88
2022-10-05T10:45:20.530Z,467.73
2022-10-05T10:48:11.385Z,478.50
2022-10-05T10:51:13.225Z,480.90
2022-10-05T10:54:09.584Z,484.60
2022-10-05T10:56:49.157Z,505.05
2022-10-05T11:00:19.825Z,501.58
2022-10-05T11:03:02.303Z,506.33
2022-10-05T11:05:38.753Z,500.63
2022-10-05T11:08:39.626Z,467.48
2022-10-05T11:11:27.918Z,477.38
2022-10-05T11:14:27.903Z,489.77
2022-10-05T11:17:26.222Z,464.73
2022-10-05T11:20:09.165Z,464.13
2022-10-05T11:22:54.998Z,467.50
2022-10-05T11:25:50.522Z,494.10
2022-10-05T11:28:35.591Z,464.77
2022-10-05T11:31:29.881Z,496.05
2022-10-05T11:34:13.835Z,482.02
2022-10-05T11:37:10.551Z,501.50
2022-10-05T11:39:44.386Z,491.90
2022-10-05T11:42:39.919Z,468.42
2022-10-05T11:45:31.528Z,447.38
2022-10-05T11:48:13.898Z,467.30
2022-10-05T11:50:51.842Z,466.70
2022-10-05T11:53:25.327Z,474.40
2022-10-05T11:56:04.612Z,490.88
2022-10-05T11:58:37.519Z,435.35
2022-10-05T12:01:16.626Z,444.30
2022-10-05T12:03:54.275Z,462.95
2022-10-05T12:06:35.989Z,450.05
2022-10-05T12:09:18.120Z,420.10
2022-10-05T12:11:58.432Z,419.77
2022-10-05T12:14:41.095Z,413.90
2022-10-05T12:17:20.198Z,435.38
2022-10-05T12:19:52.262Z,427.95
2022-10-05T12:22:22.772Z,428.58
2022-10-05T12:25:03.760Z,416.60
2022-10-05T12:27:38.809Z,429.98
2022-10-05T12:30:15.338Z,440.75
2022-10-05T12:32:55.885Z,416.70
2022-10-05T12:35:47.392Z,419.00
2022-10-05T12:38:24.794Z,408.67
2022-10-05T12:41:05.224Z,401.88
2022-10-05T12:43:41.309Z,397.17
2022-10-05T12:46:21.926Z,414.15
2022-10-05T12:49:08.842Z,403.17
2022-10-05T12:51:42.347Z,425.85
2022-10-05T12:54:21.614Z,438.20
2022-10-05T12:56:55.709Z,413.23
2022-10-05T12:59:34.706Z,379.55
2022-10-05T13:02:12.706Z,399.77
2022-10-05T13:04:49.930Z,405.45
2022-10-05T13:07:35.954Z,397.85
2022-10-05T13:10:17.057Z,382.13
2022-10-05T13:12:55.770Z,398.65
2022-10-05T13:15:30.634Z,383.42
2022-10-05T13:18:12.776Z,380.17
2022-10-05T13:20:47.856Z,376.77
2022-10-05T13:23:23.568Z,377.90
2022-10-05T13:25:57.414Z,383.33
2022-10-05T13:28:32.296Z,399.60
2022-10-05T13:31:07.277Z,400.95
2022-10-05T13:33:58.455Z,389.75
2022-10-05T13:36:38.565Z,384.05
2022-10-05T13:39:19.068Z,377.75
2022-10-05T13:41:55.073Z,378.23
2022-10-05T13:44:30.758Z,380.27
2022-10-05T13:47:03.083Z,363.40
2022-10-05T13:49:40.002Z,385.67
2022-10-05T13:52:21.430Z,378.90
2022-10-05T13:54:56.623Z,378.58
2022-10-05T13:57:44.915Z,373.45
2022-10-05T14:00:18.801Z,372.67
2022-10-05T14:02:51.499Z,376.77
2022-10-05T14:05:21.862Z,375.42
2022-10-05T14:07:53.555Z,369.45
2022-10-05T14:10:35.017Z,382.88
2022-10-05T14:13:17.655Z,387.85
2022-10-05T14:15:59.405Z,346.25
2022-10-05T14:18:30.811Z,373.90
2022-10-05T14:21:03.185Z,373.35
2022-10-05T14:23:32.239Z,373.70
2022-10-05T14:26:04.185Z,367.95
2022-10-05T14:28:33.920Z,382.23
2022-10-05T14:31:03.221Z,364.35
2022-10-05T14:33:35.794Z,371.08
2022-10-05T14:36:04.006Z,362.58
2022-10-05T14:38:36.999Z,358.00
2022-10-05T14:41:17.601Z,360.80
2022-10-05T14:43:55.872Z,357.88
2022-10-05T14:46:27.887Z,366.67
2022-10-05T14:49:13.457Z,357.35
2022-10-05T14:51:42.171Z,362.27
2022-10-05T14:54:25.707Z,374.63
2022-10-05T14:57:04.514Z,373.08
2022-10-05T15:00:01.656Z,366.27
2022-10-05T15:02:55.494Z,390.00
2022-10-05T15:05:31.155Z,372.23
2022-10-05T15:08:06.356Z,372.80
2022-10-05T15:10:41.451Z,390.38
2022-10-05T15:13:16.542Z,371.00
2022-10-05T15:15:50.862Z,365.83
2022-10-05T15:18:32.008Z,382.15
2022-10-05T15:21:23.946Z,392.50
2022-10-05T15:23:55.172Z,362.38
2022-10-05T15:26:36.117Z,375.27
2022-10-05T15:29:18.619Z,397.67
2022-10-05T15:31:55.795Z,379.52
2022-10-05T15:34:31.956Z,387.75
2022-10-05T15:37:10.674Z,388.98
2022-10-05T15:39:45.253Z,374.25
2022-10-05T15:42:17.926Z,366.63
2022-10-05T15:44:59.714Z,389.85
2022-10-05T15:47:46.080Z,392.13
2022-10-05T15:50:21.751Z,390.48
2022-10-05T15:52:54.007Z,372.10
2022-10-05T15:55:27.742Z,416.20
2022-10-05T15:58:16.346Z,417.73
2022-10-05T16:00:49.456Z,393.27
2022-10-05T16:03:26.653Z,391.58
2022-10-05T16:06:18.747Z,405.70
2022-10-05T16:09:04.850Z,407.30
2022-10-05T16:11:54.486Z,410.58
2022-10-05T16:14:33.157Z,382.80
2022-10-05T16:17:13.988Z,403.15
2022-10-05T16:19:50.733Z,396.08
2022-10-05T16:22:25.554Z,408.13
2022-10-05T16:25:09.532Z,386.05
2022-10-05T16:27:52.519Z,406.80
2022-10-05T16:30:24.181Z,392.42
2022-10-05T16:32:59.526Z,396.15
2022-10-05T16:35:44.258Z,400.38
2022-10-05T16:38:25.637Z,405.00
2022-10-05T16:41:02.413Z,417.23
2022-10-05T16:43:45.763Z,382.92
2022-10-05T16:46:22.498Z,406.17
2022-10-05T16:48:59.747Z,421.67
2022-10-05T16:51:33.120Z,395.83
2022-10-05T16:54:11.652Z,423.23
2022-10-05T16:56:44.366Z,399.92
2022-10-05T16:59:44.535Z,405.05
2022-10-05T17:02:22.726Z,398.48
2022-10-05T17:05:02.035Z,426.60
2022-10-05T17:07:54.152Z,413.33
2022-10-05T17:10:40.170Z,413.73
2022-10-05T17:13:22.506Z,402.52
2022-10-05T17:16:04.059Z,411.65
2022-10-05T17:19:03.379Z,393.52
2022-10-05T17:21:38.382Z,438.38
2022-10-05T17:24:24.330Z,404.90
2022-10-05T17:27:02.809Z,417.83
2022-10-05T17:29:47.828Z,422.08
2022-10-05T17:32:54.822Z,441.08
2022-10-05T17:35:42.176Z,436.15
2022-10-05T17:38:22.755Z,435.05
2022-10-05T17:41:14.741Z,422.83
2022-10-05T17:44:24.721Z,419.80
2022-10-05T17:46:55.059Z,431.30
2022-10-05T17:49:39.642Z,452.55
2022-10-05T17:52:40.601Z,453.35
2022-10-05T17:55:26.632Z,440.80
2022-10-05T17:57:58.547Z,432.58
2022-10-05T18:00:41.910Z,434.60
2022-10-05T18:03:40.668Z,459.55
2022-10-05T18:06:35.250Z,422.83
2022-10-05T18:09:20.792Z,437.52
2022-10-05T18:12:17.902Z,443.50
2022-10-05T18:15:00.969Z,422.73
2022-10-05T18:17:41.939Z,442.63
2022-10-05T18:20:18.226Z,445.83
2022-10-05T18:22:46.702Z,426.77
2022-10-05T18:25:27.058Z,452.70
2022-10-05T18:28:24.305Z,441.98
2022-10-05T18:31:04.988Z,446.35
2022-10-05T18:33:50.049Z,413.48
2022-10-05T18:36:37.526Z,451.52
2022-10-05T18:39:19.137Z,421.77
2022-10-05T18:41:59.748Z,463.52
2022-10-05T18:44:39.350Z,446.15
2022-10-05T18:47:14.544Z,444.98
2022-10-05T18:50:03.886Z,454.10
2022-10-05T18:52:42.564Z,447.45
2022-10-05T18:55:18.258Z,440.20
2022-10-05T18:58:08.469Z,446.52
2022-10-05T19:01:06.337Z,443.17
2022-10-05T19:03:39.578Z,441.38
2022-10-05T19:06:14.734Z,428.98
2022-10-05T19:08:49.589Z,426.10
2022-10-05T19:11:24.612Z,437.60
2022-10-05T19:14:01.602Z,426.08
2022-10-05T19:16:47.934Z,434.20
2022-10-05T19:19:32.409Z,430.85
2022-10-05T19:22:07.009Z,420.85
2022-10-05T19:24:47.469Z,409.55
2022-10-05T19:27:25.469Z,425.98
2022-10-05T19:30:13.433Z,445.45
2022-10-05T19:32:52.818Z,416.13
2022-10-05T19:35:27.943Z,411.42
2022-10-05T19:38:15.219Z,402.40
2022-10-05T19:40:56.187Z,392.58
2022-10-05T19:43:37.782Z,389.23
2022-10-05T19:46:19.091Z,404.05
2022-10-05T19:48:49.410Z,383.63
2022-10-05T19:51:27.543Z,360.95
2022-10-05T19:53:57.006Z,357.00
2022-10-05T19:56:26.363Z,384.10
2022-10-05T19:58:56.325Z,369.08
2022-10-05T20:01:27.343Z,365.35
2022-10-05T20:04:13.394Z,339.15
2022-10-05T20:07:02.195Z,331.85
2022-10-05T20:09:56.648Z,340.40
2022-10-05T20:12:51.602Z,351.45
2022-10-05T20:15:57.286Z,344.75
2022-10-05T20:19:08.020Z,342.10
2022-10-05T20:21:59.665Z,348.35
2022-10-05T20:24:51.070Z,342.75
2022-10-05T20:27:47.521Z,342.02
2022-10-05T20:30:35.380Z,333.20
2022-10-05T20:33:26.532Z,340.77
2022-10-05T20:36:15.842Z,332.08
2022-10-05T20:39:03.757Z,342.58
2022-10-05T20:41:51.700Z,348.20
2022-10-05T20:44:39.691Z,335.40
2022-10-05T20:47:27.599Z,336.33
2022-10-05T20:50:16.042Z,340.17
2022-10-05T20:53:11.005Z,330.27
2022-10-05T20:56:02.276Z,336.92
2022-10-05T20:58:50.182Z,354.60
2022-10-05T21:01:38.124Z,331.52
2022-10-05T21:04:30.157Z,344.88
2022-10-05T21:07:20.963Z,352.17
2022-10-05T21:10:10.789Z,369.63
2022-10-05T21:13:02.689Z,340.77
2022-10-05T21:15:50.592Z,344.67
2022-10-05T21:18:38.473Z,348.88
2022-10-05T21:21:27.724Z,356.15
2022-10-05T21:24:17.221Z,365.20
2022-10-05T21:27:07.162Z,370.42
2022-10-05T21:29:55.038Z,360.70
2022-10-05T21:32:44.590Z,351.52
2022-10-05T21:35:32.911Z,357.48
2022-10-05T21:38:20.837Z,350.90
2022-10-05T21:41:09.530Z,363.83
2022-10-05T21:43:58.765Z,372.20
2022-10-05T21:46:47.797Z,375.60
2022-10-05T21:49:36.949Z,342.38
2022-10-05T21:52:24.895Z,378.98
2022-10-05T21:55:12.975Z,385.25
2022-10-05T21:58:02.127Z,371.63
2022-10-05T22:00:51.381Z,379.48
2022-10-05T22:03:39.376Z,388.83
2022-10-05T22:06:27.334Z,390.40
2022-10-05T22:09:15.225Z,400.25
2022-10-05T22:12:03.116Z,389.98
2022-10-05T22:14:51.049Z,419.98
2022-10-05T22:17:42.094Z,415.23
2022-10-05T22:20:31.884Z,391.00
2022-10-05T22:23:20.363Z,407.85
2022-10-05T22:26:10.133Z,417.98
2022-10-05T22:28:58.580Z,389.98
2022-10-05T22:31:48.675Z,395.83
2022-10-05T22:34:38.122Z,432.63
2022-10-05T22:37:26.033Z,428.35
2022-10-05T22:40:13.918Z,444.98
2022-10-05T22:43:01.823Z,442.30
2022-10-05T22:45:50.018Z,432.98
2022-10-05T22:48:38.362Z,417.45
2022-10-05T22:51:27.633Z,410.40
2022-10-05T22:54:15.549Z,417.45
2022-10-05T22:57:03.434Z,437.08
2022-10-05T22:59:51.313Z,433.90
2022-10-05T23:02:40.721Z,449.00
2022-10-05T23:05:28.664Z,460.10
2022-10-05T23:08:17.904Z,458.67
2022-10-05T23:11:06.947Z,448.55
2022-10-05T23:13:56.750Z,449.00
2022-10-05T23:16:44.656Z,452.27
2022-10-05T23:19:32.603Z,456.33
2022-10-05T23:22:21.697Z,441.65
2022-10-05T23:25:11.088Z,434.35
2022-10-05T23:27:58.986Z,450.38
2022-10-05T23:30:46.942Z,460.00
2022-10-05T23:33:35.699Z,440.77
2022-10-05T23:36:25.270Z,458.83
2022-10-05T23:39:13.649Z,425.23
2022-10-05T23:42:02.904Z,440.15
2022-10-05T23:44:50.902Z,443.38
2022-10-05T23:47:38.868Z,472.75
2022-10-05T23:50:26.930Z,452.80
2022-10-05T23:53:15.664Z,460.45
2022-10-05T23:56:04.588Z,444.90
2022-10-05T23:58:53.830Z,451.08
